Time;durP1;ratioP1;P1;durP2;ratioP2;P2;SDS_P1;SDS_P2;PMS_P1;PMS_P2;Temp;Humidity;BMP_temperature;BMP_pressure;BME280_temperature;BME280_humidity;BME280_pressure;Samples;Min_cycle;Max_cycle;Signal;HPM_P1;HPM_P2
2022/08/31 00:04:26;;;;;;;3.22;3.13;;;;;;;17.08;100.00;101974.81;5222454;28;20261;-65
2022/08/31 00:06:57;;;;;;;5.72;3.70;;;;;;;17.17;100.00;101972.38;5223066;28;20025;-65
2022/08/31 00:09:29;;;;;;;3.40;3.20;;;;;;;17.20;100.00;101977.28;5223400;28;20389;-66
2022/08/31 00:12:00;;;;;;;3.28;3.08;;;;;;;17.04;100.00;101940.97;5223323;28;20381;-65
2022/08/31 00:14:30;;;;;;;3.83;3.42;;;;;;;17.26;100.00;101973.47;5205076;28;20032;-66
2022/08/31 00:17:01;;;;;;;3.17;3.08;;;;;;;17.29;100.00;101967.47;5223162;28;20025;-66
2022/08/31 00:19:32;;;;;;;3.38;2.92;;;;;;;17.23;100.00;101949.44;5223061;28;20378;-65
2022/08/31 00:22:02;;;;;;;2.88;2.78;;;;;;;17.28;100.00;101959.53;5223190;28;20440;-66
2022/08/31 00:24:33;;;;;;;2.83;2.72;;;;;;;17.28;100.00;101960.38;5222942;28;20079;-66
2022/08/31 00:27:04;;;;;;;4.60;2.75;;;;;;;17.29;100.00;101962.00;5223075;28;20025;-65
2022/08/31 00:29:34;;;;;;;3.10;2.90;;;;;;;17.31;100.00;101970.75;5223006;28;20040;-64
2022/08/31 00:32:04;;;;;;;5.75;3.58;;;;;;;17.30;100.00;101958.19;5222952;28;20467;-64
2022/08/31 00:34:35;;;;;;;2.90;2.80;;;;;;;17.29;100.00;101963.91;5222607;28;20048;-64
2022/08/31 00:37:05;;;;;;;3.38;3.15;;;;;;;17.27;100.00;101956.00;5223011;28;20028;-65
2022/08/31 00:39:36;;;;;;;2.90;2.70;;;;;;;17.29;100.00;101963.91;5222921;28;20384;-65
2022/08/31 00:42:06;;;;;;;2.70;2.58;;;;;;;16.99;100.00;101919.16;5223143;28;20097;-65
2022/08/31 00:44:38;;;;;;;2.95;2.75;;;;;;;17.21;100.00;101963.38;5222482;28;20400;-65
2022/08/31 00:47:09;;;;;;;2.80;2.60;;;;;;;17.18;100.00;101954.91;5222971;28;20024;-65
2022/08/31 00:49:43;;;;;;;4.40;3.45;;;;;;;17.05;100.00;101947.25;5202617;28;20166;-65
2022/08/31 00:52:16;;;;;;;2.95;2.75;;;;;;;17.05;100.00;101958.16;5222961;28;20423;-65
2022/08/31 00:54:53;;;;;;;6.47;3.10;;;;;;;17.04;100.00;101957.34;5222404;28;20481;-65
2022/08/31 00:57:32;;;;;;;4.15;3.85;;;;;;;17.00;100.00;101961.72;5205651;28;20032;-70
2022/08/31 01:00:10;;;;;;;3.03;2.90;;;;;;;16.91;100.00;101957.06;5222782;28;20048;-65
2022/08/31 01:02:41;;;;;;;3.72;3.35;;;;;;;16.84;100.00;101958.16;5222834;28;20550;-65
2022/08/31 01:05:13;;;;;;;3.13;2.90;;;;;;;16.82;100.00;101959.50;5222112;28;20025;-65
2022/08/31 01:07:46;;;;;;;4.35;4.07;;;;;;;16.76;100.00;101961.41;5226652;28;20562;-65
2022/08/31 01:10:20;;;;;;;3.83;3.58;;;;;;;16.72;100.00;101954.06;5208417;28;20064;-64
2022/08/31 01:12:54;;;;;;;3.97;2.67;;;;;;;16.61;100.00;101938.72;5226713;28;20025;-64
2022/08/31 01:15:27;;;;;;;3.38;3.17;;;;;;;16.62;100.00;101954.81;5225898;28;20025;-64
2022/08/31 01:18:02;;;;;;;4.07;3.83;;;;;;;16.53;100.00;101954.53;5225942;28;20107;-64
2022/08/31 01:21:11;;;;;;;8.60;3.63;;;;;;;16.51;100.00;101958.59;5191960;28;20028;-64
2022/08/31 01:23:43;;;;;;;3.90;3.65;;;;;;;16.47;100.00;101955.59;5211036;28;20138;-65
2022/08/31 01:26:19;;;;;;;6.53;4.32;;;;;;;16.43;100.00;101961.88;5226016;28;20044;-64
2022/08/31 01:28:54;;;;;;;4.05;3.72;;;;;;;16.38;100.00;101957.22;5225991;28;20108;-64
2022/08/31 01:31:39;;;;;;;2.97;2.88;;;;;;;16.34;100.00;101955.28;5226131;28;20048;-64
2022/08/31 01:34:09;;;;;;;3.65;3.45;;;;;;;16.28;100.00;101950.91;5225273;28;20037;-64
2022/08/31 01:36:41;;;;;;;3.50;3.20;;;;;;;16.19;100.00;101945.97;5225683;28;20053;-64
2022/08/31 01:39:11;;;;;;;2.97;2.83;;;;;;;16.18;100.00;101960.69;5207827;28;20112;-65
2022/08/31 01:41:42;;;;;;;4.70;4.30;;;;;;;16.12;100.00;101950.88;5208060;28;20600;-65
2022/08/31 01:44:16;;;;;;;3.67;3.47;;;;;;;16.10;100.00;101950.31;5225221;28;20116;-64
2022/08/31 01:46:47;;;;;;;6.70;3.75;;;;;;;16.04;100.00;101947.81;5225875;28;20029;-64
2022/08/31 01:49:20;;;;;;;3.90;3.70;;;;;;;16.04;100.00;101953.28;5225487;28;20028;-64
2022/08/31 01:51:52;;;;;;;4.28;4.03;;;;;;;16.03;100.00;101967.97;5225855;28;20029;-64
2022/08/31 01:54:24;;;;;;;2.97;2.88;;;;;;;15.97;100.00;101958.97;5225476;28;20032;-64
2022/08/31 01:56:56;;;;;;;3.30;3.15;;;;;;;15.97;100.00;101952.69;5225940;28;20488;-64
2022/08/31 01:59:27;;;;;;;3.72;3.53;;;;;;;15.95;100.00;101961.13;5225530;28;20086;-65
2022/08/31 02:01:57;;;;;;;3.63;3.42;;;;;;;15.98;100.00;101955.16;5225513;28;20075;-64
2022/08/31 02:04:28;;;;;;;3.70;3.60;;;;;;;16.00;100.00;101963.88;5225028;28;20055;-67
2022/08/31 02:07:00;;;;;;;3.65;3.45;;;;;;;16.04;100.00;101964.16;5225495;28;20075;-64
2022/08/31 02:09:30;;;;;;;3.78;3.58;;;;;;;16.09;100.00;101966.91;5225394;28;20123;-64
2022/08/31 02:12:01;;;;;;;4.30;4.00;;;;;;;16.08;100.00;101955.19;5225220;28;20481;-65
2022/08/31 02:14:31;;;;;;;4.22;3.97;;;;;;;16.09;100.00;101962.28;5224564;28;20017;-64
2022/08/31 02:17:01;;;;;;;7.75;3.67;;;;;;;16.14;100.00;101956.88;5225049;28;20215;-64
2022/08/31 02:19:32;;;;;;;3.15;2.92;;;;;;;16.16;100.00;101971.06;5225175;28;20013;-64
2022/08/31 02:22:02;;;;;;;6.72;3.83;;;;;;;16.17;100.00;101969.94;5225005;28;20029;-64
2022/08/31 02:24:33;;;;;;;4.18;3.50;;;;;;;16.18;100.00;101968.03;5206773;28;20025;-64
2022/08/31 02:27:03;;;;;;;4.18;3.88;;;;;;;16.17;100.00;101969.94;5225523;28;20029;-65
2022/08/31 02:29:34;;;;;;;4.25;3.95;;;;;;;16.16;100.00;101967.50;5225156;28;20424;-65
2022/08/31 02:32:05;;;;;;;4.07;3.70;;;;;;;16.15;100.00;101974.88;5225122;28;20017;-65
2022/08/31 02:34:35;;;;;;;4.50;4.20;;;;;;;16.14;100.00;101973.22;5224418;28;20029;-65
2022/08/31 02:37:06;;;;;;;5.43;5.10;;;;;;;16.04;100.00;101959.53;5224844;28;20028;-65
2022/08/31 02:39:36;;;;;;;3.17;3.08;;;;;;;16.02;100.00;101960.88;5224992;28;20075;-65
2022/08/31 02:42:07;;;;;;;4.03;3.80;;;;;;;16.10;100.00;101974.84;5206910;28;20552;-65
2022/08/31 02:44:37;;;;;;;3.97;3.70;;;;;;;16.09;100.00;101978.66;5206404;28;20021;-65
2022/08/31 02:47:08;;;;;;;5.80;4.72;;;;;;;16.11;100.00;101979.19;5207147;28;20503;-70
2022/08/31 02:49:38;;;;;;;3.95;3.65;;;;;;;16.10;100.00;101971.28;5224289;28;20033;-65
2022/08/31 02:52:09;;;;;;;3.97;3.78;;;;;;;16.07;100.00;101969.09;5224440;28;20016;-65
2022/08/31 02:54:39;;;;;;;3.38;3.17;;;;;;;16.04;100.00;101958.72;5223906;28;20111;-65
2022/08/31 02:57:10;;;;;;;4.03;3.83;;;;;;;16.04;100.00;101966.91;5224583;28;20429;-65
2022/08/31 02:59:41;;;;;;;4.05;3.85;;;;;;;15.98;100.00;101955.16;5206320;28;20037;-65
2022/08/31 03:02:12;;;;;;;4.50;4.20;;;;;;;15.88;100.00;101932.50;5206093;28;20025;-66
2022/08/31 03:04:43;;;;;;;8.25;5.15;;;;;;;15.99;100.00;101958.69;5223802;28;20021;-69
2022/08/31 03:07:14;;;;;;;4.50;4.30;;;;;;;15.98;100.00;101966.03;5224469;28;20032;-65
2022/08/31 03:09:44;;;;;;;4.95;3.72;;;;;;;15.97;100.00;101969.03;5223814;28;20031;-65
2022/08/31 03:12:15;;;;;;;3.42;3.15;;;;;;;15.94;100.00;101964.94;5206434;28;20013;-65
2022/08/31 03:14:45;;;;;;;4.13;3.90;;;;;;;15.89;100.00;101954.00;5205405;28;20104;-64
2022/08/31 03:17:16;;;;;;;9.65;4.35;;;;;;;15.84;100.00;101957.56;5224314;28;20047;-65
2022/08/31 03:19:46;;;;;;;3.45;3.25;;;;;;;15.82;100.00;101961.63;5206378;28;20036;-65
2022/08/31 03:22:17;;;;;;;3.97;3.67;;;;;;;15.80;100.00;101966.50;5224192;28;20033;-65
2022/08/31 03:24:47;;;;;;;3.47;3.28;;;;;;;15.70;100.00;101963.72;5221975;28;20032;-65
2022/08/31 03:27:18;;;;;;;8.68;4.30;;;;;;;15.67;100.00;101975.13;5224082;28;20108;-65
2022/08/31 03:29:48;;;;;;;5.55;4.90;;;;;;;15.62;100.00;101972.38;5223343;28;20040;-65
2022/08/31 03:32:19;;;;;;;5.15;4.75;;;;;;;15.53;100.00;101969.31;5223897;28;20048;-65
2022/08/31 03:34:58;;;;;;;6.47;3.38;;;;;;;15.47;100.00;101970.34;5223659;28;20108;-64
2022/08/31 03:37:28;;;;;;;3.95;3.75;;;;;;;15.41;100.00;101968.66;5223701;28;20021;-65
2022/08/31 03:39:59;;;;;;;5.03;4.63;;;;;;;15.27;100.00;101960.13;5205795;28;20042;-65
2022/08/31 03:42:29;;;;;;;4.18;3.88;;;;;;;15.27;100.00;101970.19;5223687;28;20117;-65
2022/08/31 03:45:00;;;;;;;3.42;3.25;;;;;;;15.19;100.00;101971.50;5222980;28;20025;-65
2022/08/31 03:47:30;;;;;;;4.82;4.47;;;;;;;15.15;100.00;101986.69;5223367;28;20028;-66
2022/08/31 03:50:03;;;;;;;4.78;4.32;;;;;;;15.11;100.00;101991.00;5223401;28;20032;-65
2022/08/31 03:52:33;;;;;;;3.78;3.47;;;;;;;15.07;100.00;101973.56;5223594;28;20027;-65
2022/08/31 03:55:04;;;;;;;4.25;4.00;;;;;;;14.96;100.00;101974.56;5223045;28;20029;-65
2022/08/31 03:57:35;;;;;;;6.35;3.60;;;;;;;14.92;100.00;101979.69;5205676;28;20108;-65
2022/08/31 04:00:07;;;;;;;4.18;3.88;;;;;;;14.83;100.00;101971.16;5223562;28;20028;-65
2022/08/31 04:02:38;;;;;;;3.72;3.60;;;;;;;14.86;100.00;101984.25;5223144;28;20059;-66
2022/08/31 04:05:12;;;;;;;4.15;3.78;;;;;;;14.73;100.00;101962.91;5204732;28;20477;-66
2022/08/31 04:07:43;;;;;;;4.70;4.50;;;;;;;14.79;100.00;101978.19;5223668;28;20071;-65
2022/08/31 04:10:14;;;;;;;4.82;4.53;;;;;;;14.76;100.00;101980.59;5223734;28;20032;-65
2022/08/31 04:12:44;;;;;;;3.50;3.40;;;;;;;14.65;100.00;101968.81;5223540;28;20017;-65
2022/08/31 04:15:15;;;;;;;3.10;3.00;;;;;;;14.68;100.00;101984.63;5222988;28;20033;-65
2022/08/31 04:17:46;;;;;;;6.10;5.20;;;;;;;14.68;100.00;101989.25;5223404;28;20105;-65
2022/08/31 04:20:16;;;;;;;4.53;4.15;;;;;;;14.64;100.00;101986.22;5223608;28;20021;-66
2022/08/31 04:22:47;;;;;;;4.05;3.78;;;;;;;14.62;100.00;101985.66;5223381;28;20039;-65
2022/08/31 04:25:17;;;;;;;4.45;4.15;;;;;;;14.55;100.00;101974.13;5222561;28;20025;-66
2022/08/31 04:27:49;;;;;;;4.43;4.10;;;;;;;14.56;100.00;101986.66;5205587;28;20025;-64
2022/08/31 04:30:20;;;;;;;4.53;4.32;;;;;;;14.51;100.00;101987.41;5205739;28;20139;-65
2022/08/31 04:32:53;;;;;;;4.03;3.83;;;;;;;14.49;100.00;101988.75;5223682;28;20016;-65
2022/08/31 04:35:23;;;;;;;4.35;4.15;;;;;;;14.42;100.00;101985.41;5222815;28;20122;-66
2022/08/31 04:37:53;;;;;;;10.05;4.97;;;;;;;14.40;100.00;101991.06;5223139;28;20175;-65
2022/08/31 04:40:24;;;;;;;5.22;4.40;;;;;;;14.35;100.00;101980.16;5223274;28;20025;-68
2022/08/31 04:42:54;;;;;;;4.28;3.92;;;;;;;14.34;100.00;101981.22;5226959;28;20028;-66
2022/08/31 04:45:25;;;;;;;4.90;4.45;;;;;;;14.33;100.00;101982.28;5225952;28;20024;-65
2022/08/31 04:47:55;;;;;;;4.40;4.10;;;;;;;14.34;100.00;101989.38;5227033;28;20099;-65
2022/08/31 04:50:26;;;;;;;4.25;4.00;;;;;;;14.30;100.00;101981.97;5226805;28;20103;-65
2022/08/31 04:52:56;;;;;;;3.72;3.53;;;;;;;14.36;100.00;101983.69;5227025;28;20382;-66
2022/08/31 04:55:26;;;;;;;3.30;3.10;;;;;;;14.38;100.00;101992.41;5226284;28;20040;-66
2022/08/31 04:57:57;;;;;;;7.63;4.63;;;;;;;14.32;100.00;101988.81;5225497;28;20489;-64
2022/08/31 05:00:27;;;;;;;3.17;2.97;;;;;;;14.32;100.00;101991.53;5225037;28;20032;-65
2022/08/31 05:02:58;;;;;;;4.50;4.30;;;;;;;14.33;100.00;101992.34;5224476;28;20033;-65
2022/08/31 05:05:28;;;;;;;5.00;4.70;;;;;;;14.30;100.00;101993.66;5226737;28;20485;-67
2022/08/31 05:07:58;;;;;;;3.17;3.05;;;;;;;14.28;100.00;101989.56;5227149;28;20032;-65
2022/08/31 05:10:29;;;;;;;3.38;3.28;;;;;;;14.16;100.00;101976.91;5239916;22;20186;-80
2022/08/31 05:12:59;;;;;;;4.97;4.68;;;;;;;14.08;100.00;101963.78;5212371;28;20109;-81
2022/08/31 05:15:29;;;;;;;6.10;5.65;;;;;;;14.02;100.00;101958.53;5211433;28;20127;-81
2022/08/31 05:18:00;;;;;;;12.32;5.07;;;;;;;14.29;100.00;101989.31;5212457;28;20053;-80
2022/08/31 05:20:30;;;;;;;11.48;5.78;;;;;;;14.31;100.00;101998.03;5211555;28;20336;-80
2022/08/31 05:23:00;;;;;;;5.45;4.90;;;;;;;14.26;100.00;101997.13;5210961;28;20131;-80
2022/08/31 05:25:32;;;;;;;7.80;4.53;;;;;;;14.33;100.00;102003.22;5209654;28;20026;-81
2022/08/31 05:28:03;;;;;;;5.35;4.82;;;;;;;14.40;100.00;102014.72;5193149;28;20116;-82
2022/08/31 05:30:34;;;;;;;6.10;5.70;;;;;;;14.41;100.00;102021.81;5210346;28;20026;-82
2022/08/31 05:33:04;;;;;;;4.82;4.43;;;;;;;14.48;100.00;102022.44;5210615;28;20083;-82
2022/08/31 05:35:35;;;;;;;4.18;3.92;;;;;;;14.48;100.00;102020.53;5210482;28;20547;-81
2022/08/31 05:38:14;;;;;;;8.98;3.92;;;;;;;14.55;100.00;102014.91;5210894;28;20045;-82
2022/08/31 05:40:52;;;;;;;5.88;5.07;;;;;;;14.66;100.00;102024.03;5209853;28;20033;-82
2022/08/31 05:43:23;;;;;;;10.05;5.95;;;;;;;14.68;100.00;102025.41;5188584;28;20114;-82
2022/08/31 05:46:00;;;;;;;5.93;4.78;;;;;;;14.78;100.00;102028.22;5205644;28;20035;-82
2022/08/31 05:48:32;;;;;;;3.92;3.72;;;;;;;14.80;100.00;102022.53;5206303;28;20052;-82
2022/08/31 05:51:05;;;;;;;3.55;3.35;;;;;;;14.89;100.00;102022.91;5206999;28;20029;-82
2022/08/31 05:53:37;;;;;;;5.70;5.13;;;;;;;14.92;100.00;102027.84;5206161;28;20052;-81
2022/08/31 05:56:10;;;;;;;3.85;3.55;;;;;;;14.97;100.00;102025.16;5207734;28;20348;-81
2022/08/31 05:58:42;;;;;;;4.70;4.30;;;;;;;14.99;100.00;102021.13;5207771;28;20025;-82
2022/08/31 06:01:31;;;;;;;4.43;4.03;;;;;;;14.95;100.00;102019.16;5207467;28;20029;-81
2022/08/31 06:04:02;;;;;;;5.22;4.43;;;;;;;14.93;100.00;102024.03;5206168;28;20031;-81
2022/08/31 06:06:33;;;;;;;3.63;3.42;;;;;;;14.96;100.00;102029.78;5207447;28;20029;-81
2022/08/31 06:09:05;;;;;;;4.72;4.35;;;;;;;14.80;100.00;102007.03;5207245;28;20021;-81
2022/08/31 06:11:40;;;;;;;4.43;4.00;;;;;;;14.91;100.00;102024.28;5206411;28;20109;-80
2022/08/31 06:14:12;;;;;;;5.30;5.00;;;;;;;14.90;100.00;102024.53;5207759;28;20021;-80
2022/08/31 06:16:43;;;;;;;4.45;4.05;;;;;;;14.90;100.00;102024.53;5209273;28;20079;-80
2022/08/31 06:19:15;;;;;;;8.27;3.95;;;;;;;14.89;100.00;102014.75;5211416;28;20356;-80
2022/08/31 06:21:49;;;;;;;4.50;4.30;;;;;;;14.83;100.00;102014.69;5211170;28;20029;-80
2022/08/31 06:24:20;;;;;;;3.80;3.60;;;;;;;14.84;100.00;102010.06;5210778;28;20044;-81
2022/08/31 06:26:54;;;;;;;4.50;4.20;;;;;;;14.99;100.00;102028.44;5192802;28;20021;-81
2022/08/31 06:29:26;;;;;;;3.47;3.28;;;;;;;14.88;100.00;102003.03;5210100;28;20025;-81
2022/08/31 06:31:59;;;;;;;4.80;4.47;;;;;;;15.02;100.00;102027.91;5192383;28;20032;-80
2022/08/31 06:34:29;;;;;;;4.28;4.07;;;;;;;14.84;100.00;102000.00;5208795;28;20537;-81
2022/08/31 06:36:59;;;;;;;4.13;3.88;;;;;;;15.12;100.00;102019.84;5210187;28;20021;-80
2022/08/31 06:39:30;;;;;;;4.65;4.35;;;;;;;14.91;100.00;101991.66;5191658;28;20032;-82
2022/08/31 06:42:02;;;;;;;3.92;3.65;;;;;;;15.13;100.00;102021.50;5209110;28;20208;-81
2022/08/31 06:44:32;;;;;;;3.35;3.20;;;;;;;14.93;100.00;101975.91;5207926;28;20230;-79
2022/08/31 06:47:02;;;;;;;4.88;4.30;;;;;;;15.30;100.00;102033.09;5191241;28;20025;-80
2022/08/31 06:49:33;;;;;;;4.00;3.80;;;;;;;15.37;100.00;102032.88;5209648;28;20030;-81
2022/08/31 06:52:03;;;;;;;4.38;4.15;;;;;;;15.45;100.00;102033.22;5209684;28;20025;-80
2022/08/31 06:54:34;;;;;;;3.75;3.45;;;;;;;15.42;100.00;102033.72;5207924;28;20021;-79
2022/08/31 06:57:04;;;;;;;3.53;3.33;;;;;;;15.37;100.00;102020.06;5209384;28;20308;-80
2022/08/31 06:59:35;;;;;;;3.45;3.28;;;;;;;15.63;100.00;102050.25;5209871;28;20148;-78
2022/08/31 07:02:06;;;;;;;4.00;3.70;;;;;;;15.66;100.00;102052.47;5209270;28;20379;-80
2022/08/31 07:04:37;;;;;;;3.88;3.70;;;;;;;15.73;100.00;102055.78;5204761;28;20045;-81
2022/08/31 07:07:10;;;;;;;3.03;2.92;;;;;;;15.76;100.00;102066.16;5207863;28;20033;-81
2022/08/31 07:09:41;;;;;;;4.05;3.78;;;;;;;15.83;100.00;102064.03;5191981;28;20120;-80
2022/08/31 07:12:11;;;;;;;6.75;3.95;;;;;;;15.89;100.00;102060.25;5209842;28;20069;-81
2022/08/31 07:14:44;;;;;;;4.05;3.85;;;;;;;15.78;100.00;102055.81;5209410;28;20079;-80
2022/08/31 07:17:15;;;;;;;10.82;4.45;;;;;;;15.98;100.00;102077.75;5210324;28;20423;-80
2022/08/31 07:19:45;;;;;;;3.45;3.28;;;;;;;16.04;100.00;102084.06;5217295;28;20021;-79
2022/08/31 07:22:15;;;;;;;6.75;3.95;;;;;;;15.94;100.00;102051.28;5216259;28;20044;-80
2022/08/31 07:24:46;;;;;;;3.60;2.83;;;;;;;16.16;100.00;102079.25;5209129;28;20096;-80
2022/08/31 07:27:17;;;;;;;4.95;3.97;;;;;;;16.11;100.00;102063.69;5210031;28;20035;-80
2022/08/31 07:29:47;;;;;;;3.92;3.63;;;;;;;16.26;100.00;102068.38;5209866;28;20040;-80
2022/08/31 07:32:18;;;;;;;4.30;4.00;;;;;;;16.37;100.00;102085.63;5209185;28;20029;-80
2022/08/31 07:34:49;;;;;;;4.70;4.35;;;;;;;16.51;100.00;102084.03;5211078;28;20029;-80
2022/08/31 07:43:00;;;;;;;3.85;3.65;;;;;;;16.79;100.00;102075.44;5213113;28;20135;-80
2022/08/31 07:45:31;;;;;;;6.78;3.65;;;;;;;17.02;100.00;102078.81;5210458;28;20037;-80
2022/08/31 07:48:02;;;;;;;8.20;3.97;;;;;;;16.86;100.00;102037.81;5214137;28;20044;-80
2022/08/31 07:50:32;;;;;;;5.18;4.72;;;;;;;17.37;100.00;102080.75;5212348;28;20025;-80
2022/08/31 07:53:07;;;;;;;9.63;3.83;;;;;;;17.60;100.00;102087.63;5210919;28;20438;-80
2022/08/31 07:55:38;;;;;;;4.90;3.70;;;;;;;17.98;100.00;102091.69;5208665;28;20105;-81
2022/08/31 07:58:12;;;;;;;4.75;4.35;;;;;;;18.04;100.00;102061.34;5210211;28;20034;-80
2022/08/31 08:00:46;;;;;;;4.93;3.95;;;;;;;18.43;100.00;102077.09;5194575;28;20093;-80
2022/08/31 08:03:16;;;;;;;3.85;3.55;;;;;;;18.80;100.00;102099.41;5213363;28;20088;-80
2022/08/31 08:05:47;;;;;;;3.70;3.50;;;;;;;19.09;100.00;102095.97;5212934;28;20029;-80
2022/08/31 08:08:21;;;;;;;9.30;4.85;;;;;;;19.12;100.00;102100.88;5213451;28;20068;-81
2022/08/31 08:10:52;;;;;;;4.22;3.83;;;;;;;18.91;100.00;102085.66;5192466;28;20033;-80
2022/08/31 08:13:22;;;;;;;7.53;4.40;;;;;;;18.83;100.00;102085.16;5208894;28;20021;-80
2022/08/31 08:15:52;;;;;;;3.38;3.17;;;;;;;18.87;100.00;102094.44;5212900;28;20502;-80
2022/08/31 08:18:23;;;;;;;3.33;3.13;;;;;;;18.75;100.00;102052.94;5195445;28;20025;-80
2022/08/31 08:20:53;;;;;;;13.48;4.70;;;;;;;19.12;100.00;102090.75;5214326;28;20677;-80
2022/08/31 08:23:25;;;;;;;3.47;3.28;;;;;;;19.21;100.00;102099.19;5213928;28;20048;-81
2022/08/31 08:25:59;;;;;;;7.45;4.35;;;;;;;18.93;100.00;102081.56;5213477;28;20163;-80
2022/08/31 08:28:30;;;;;;;4.13;3.83;;;;;;;18.95;100.00;102068.41;5213162;28;20056;-80
2022/08/31 08:31:00;;;;;;;4.30;3.33;;;;;;;19.17;100.00;102100.84;5213280;28;20033;-79
2022/08/31 08:33:33;;;;;;;3.50;3.22;;;;;;;19.01;100.00;102096.56;5211867;28;20017;-79
2022/08/31 08:36:06;;;;;;;5.18;4.28;;;;;;;19.15;100.00;102095.66;5213005;28;20108;-80
2022/08/31 08:38:42;;;;;;;6.40;3.95;;;;;;;18.92;100.00;102085.38;5192416;28;20538;-80
2022/08/31 08:41:19;;;;;;;3.80;3.60;;;;;;;18.93;100.00;102105.38;5209068;28;20026;-81
2022/08/31 08:43:53;;;;;;;3.63;3.42;;;;;;;18.80;100.00;102107.59;5190186;28;20486;-80
2022/08/31 08:46:30;;;;;;;4.07;3.88;;;;;;;18.72;100.00;102101.91;5191081;28;20022;-80
2022/08/31 08:49:14;;;;;;;4.57;4.35;;;;;;;18.72;100.00;102102.75;5209240;28;20467;-80
2022/08/31 08:51:46;;;;;;;4.63;3.25;;;;;;;18.71;100.00;102101.09;5211303;28;20029;-79
2022/08/31 08:54:32;;;;;;;4.00;3.75;;;;;;;18.58;100.00;102098.91;5211387;28;20021;-81
2022/08/31 08:57:12;;;;;;;4.65;4.25;;;;;;;18.59;100.00;102100.56;5192836;28;20144;-80
2022/08/31 08:59:45;;;;;;;4.10;3.78;;;;;;;18.72;100.00;102101.91;5211464;28;20060;-81
2022/08/31 09:02:19;;;;;;;3.53;3.33;;;;;;;18.97;100.00;102093.56;5212643;28;20021;-80
2022/08/31 09:05:07;;;;;;;9.70;3.72;;;;;;;19.36;100.00;102090.03;5196128;28;20029;-80
2022/08/31 09:08:14;;;;;;;3.58;3.38;;;;;;;19.91;100.00;102088.78;5215650;28;20580;-80
2022/08/31 09:11:09;;;;;;;4.85;4.15;;;;;;;19.97;100.00;102060.19;5212697;28;20037;-80
2022/08/31 09:13:48;;;;;;;3.17;2.97;;;;;;;20.52;100.00;102090.88;5211142;28;20509;-80
2022/08/31 09:16:46;;;;;;;4.80;2.83;;;;;;;20.55;100.00;102090.28;5212760;28;20033;-80
2022/08/31 09:19:18;;;;;;;3.33;3.05;;;;;;;20.75;100.00;102089.25;5193824;28;20025;-80
2022/08/31 09:21:57;;;;;;;3.28;3.15;;;;;;;20.87;100.00;102070.38;5211977;28;20367;-80
2022/08/31 09:24:29;;;;;;;4.50;4.17;;;;;;;20.65;100.00;102098.41;5193656;28;20030;-80
2022/08/31 09:27:20;;;;;;;3.80;3.50;;;;;;;20.92;100.00;102085.97;5211830;28;20025;-80
2022/08/31 09:29:59;;;;;;;5.10;4.55;;;;;;;20.90;100.00;102081.59;5211445;28;20056;-80
2022/08/31 09:32:34;;;;;;;3.70;2.90;;;;;;;20.97;100.00;102077.69;5212048;28;20036;-81
2022/08/31 09:35:26;;;;;;;2.70;2.60;;;;;;;20.81;100.00;102055.09;5215502;28;20028;-79
2022/08/31 09:38:08;;;;;;;4.05;3.85;;;;;;;20.79;100.00;102076.56;5195498;28;20029;-80
2022/08/31 09:40:42;;;;;;;3.28;3.05;;;;;;;20.92;100.00;102061.25;5215794;28;20049;-80
2022/08/31 09:43:30;;;;;;;5.35;4.85;;;;;;;21.01;100.00;102043.84;5217430;28;20025;-79
2022/08/31 09:46:25;;;;;;;4.18;3.90;;;;;;;21.34;100.00;102069.47;5217587;28;20127;-80
2022/08/31 09:49:01;;;;;;;3.83;3.53;;;;;;;21.40;100.00;102070.97;5210967;28;20052;-79
2022/08/31 09:51:36;;;;;;;2.97;2.80;;;;;;;21.35;100.00;102076.59;5195862;28;20017;-78
2022/08/31 09:57:08;;;;;;;4.90;2.83;;;;;;;21.34;100.00;102076.88;5213514;28;20056;-80
2022/08/31 09:59:42;;;;;;;5.18;3.58;;;;;;;21.37;100.00;102066.09;5196381;28;20052;-80
2022/08/31 10:02:24;;;;;;;4.13;3.83;;;;;;;21.47;100.00;102079.66;5195812;28;20022;-78
2022/08/31 10:04:59;;;;;;;3.97;3.78;;;;;;;21.39;100.00;102071.28;5212334;28;20025;-78
2022/08/31 10:07:47;;;;;;;4.60;4.20;;;;;;;21.06;100.00;102045.69;5212994;28;20025;-80
2022/08/31 10:10:31;;;;;;;5.07;4.68;;;;;;;21.36;100.00;102044.44;5214256;28;20029;-79
2022/08/31 10:13:16;;;;;;;7.75;4.57;;;;;;;21.79;100.00;102050.53;5212485;28;20428;-78
2022/08/31 10:15:58;;;;;;;4.80;3.90;;;;;;;22.19;100.00;102052.56;5211139;28;20447;-78
2022/08/31 10:18:46;;;;;;;5.55;5.15;;;;;;;22.22;100.00;102057.47;5212399;28;20035;-78
2022/08/31 10:21:25;;;;;;;4.85;4.53;;;;;;;21.96;100.00;102037.00;5211538;28;20049;-79
2022/08/31 10:24:27;;;;;;;4.35;4.07;;;;;;;21.93;100.00;102054.16;5191184;28;20101;-80
2022/08/31 10:27:07;;;;;;;6.63;5.25;;;;;;;22.00;100.00;102049.03;5209486;28;20032;-81
2022/08/31 10:29:53;;;;;;;4.95;4.70;;;;;;;21.81;100.00;102056.56;5192250;28;20021;-80
2022/08/31 10:33:03;;;;;;;5.72;4.47;;;;;;;21.93;100.00;102062.41;5190342;28;20026;-79
2022/08/31 10:35:56;;;;;;;8.52;4.18;;;;;;;22.21;100.00;102060.50;5174374;28;20033;-78
2022/08/31 10:38:33;;;;;;;5.47;4.18;;;;;;;22.33;100.00;102048.97;5229761;28;20090;-79
2022/08/31 10:41:29;;;;;;;4.97;4.30;;;;;;;22.35;100.00;102050.31;5213444;28;20102;-82
2022/08/31 10:44:16;;;;;;;12.07;6.03;;;;;;;22.52;100.00;102044.97;5220888;28;20010;-78
2022/08/31 10:46:49;;;;;;;3.63;3.50;;;;;;;22.67;100.00;102043.84;5212944;28;20036;-78
2022/08/31 10:49:21;;;;;;;4.13;3.83;;;;;;;22.77;100.00;102040.06;5229554;28;20009;-78
2022/08/31 10:52:05;;;;;;;4.97;4.43;;;;;;;22.98;100.00;102045.94;5209998;28;20021;-82
2022/08/31 10:55:05;;;;;;;4.65;4.38;;;;;;;23.04;100.00;102047.47;5187760;28;20559;-81
2022/08/31 10:57:55;;;;;;;5.18;4.85;;;;;;;23.12;100.00;102052.22;5206805;28;20026;-81
2022/08/31 11:00:44;;;;;;;14.73;5.18;;;;;;;23.05;100.00;102040.81;5206848;28;20415;-81
2022/08/31 11:03:30;;;;;;;5.25;4.75;;;;;;;23.29;100.00;102040.53;5188198;28;20029;-79
2022/08/31 11:06:24;;;;;;;4.38;4.07;;;;;;;23.23;100.00;102048.09;5206622;28;20443;-82
2022/08/31 11:09:02;;;;;;;4.35;4.03;;;;;;;23.00;100.00;102019.72;5206960;28;20021;-80
2022/08/31 11:11:42;;;;;;;4.95;4.55;;;;;;;23.04;100.00;102037.25;5270773;22;20055;-80
2022/08/31 11:14:44;;;;;;;5.57;5.13;;;;;;;22.87;100.00;102045.34;5250329;28;20451;-81
2022/08/31 11:17:21;;;;;;;5.45;5.15;;;;;;;22.93;100.00;102043.31;5255858;28;20221;-80
2022/08/31 11:20:08;;;;;;;6.10;5.70;;;;;;;22.97;100.00;102034.09;5256351;28;20028;-81
2022/08/31 11:22:45;;;;;;;7.70;5.03;;;;;;;22.93;100.00;102029.53;5254093;28;20016;-81
2022/08/31 11:25:49;;;;;;;3.97;3.67;;;;;;;22.99;100.00;102025.53;5250036;28;20060;-81
2022/08/31 11:28:32;;;;;;;7.57;4.72;;;;;;;23.19;100.00;102023.09;5235654;28;20029;-80
2022/08/31 11:31:33;;;;;;;4.30;3.95;;;;;;;23.22;100.00;102028.00;5236716;28;20021;-82
2022/08/31 11:34:15;;;;;;;4.85;3.35;;;;;;;23.32;100.00;102021.41;5231849;28;20528;-81
2022/08/31 11:36:51;;;;;;;8.40;5.88;;;;;;;23.33;100.00;102013.97;5244196;28;20052;-79
2022/08/31 11:39:34;;;;;;;5.68;4.13;;;;;;;23.54;100.00;102017.84;5257235;28;20035;-80
2022/08/31 11:42:11;;;;;;;3.03;2.92;;;;;;;23.66;100.00;102017.28;5255743;28;20041;-80
2022/08/31 11:44:43;;;;;;;16.70;4.70;;;;;;;23.63;100.00;102012.41;5255966;28;20045;-80
2022/08/31 11:47:28;;;;;;;4.78;4.38;;;;;;;23.66;100.00;102000.72;5257250;28;20035;-79
2022/08/31 11:50:30;;;;;;;8.02;5.50;;;;;;;23.79;99.54;102006.13;5256964;28;20024;-80
2022/08/31 11:53:19;;;;;;;4.80;4.50;;;;;;;23.82;99.94;102004.69;5246871;28;20070;-81
2022/08/31 11:56:00;;;;;;;3.97;3.67;;;;;;;23.62;99.50;101991.47;5255834;28;20021;-80
2022/08/31 11:58:33;;;;;;;5.72;4.05;;;;;;;23.32;100.00;101971.81;5257644;28;20034;-81
2022/08/31 12:01:10;;;;;;;14.90;4.45;;;;;;;23.53;100.00;102000.50;5257425;28;20258;-80
2022/08/31 12:03:51;;;;;;;6.78;3.50;;;;;;;23.72;100.00;101980.13;5256814;28;20021;-81